sensor_id;sensor_type;location;lat;lon;timestamp;P1;durP1;ratioP1;P2;durP2;ratioP2
77004;SDS011;67261;53.132;18.006;2024-03-02T00:00:39;53.20;;;25.70;;
77004;SDS011;67261;53.132;18.006;2024-03-02T00:03:26;53.30;;;25.80;;
77004;SDS011;67261;53.132;18.006;2024-03-02T00:05:53;53.70;;;26.90;;
77004;SDS011;67261;53.132;18.006;2024-03-02T00:08:24;59.00;;;26.80;;
77004;SDS011;67261;53.132;18.006;2024-03-02T00:10:53;60.80;;;27.90;;
77004;SDS011;67261;53.132;18.006;2024-03-02T00:13:24;59.50;;;28.40;;
77004;SDS011;67261;53.132;18.006;2024-03-02T00:15:54;53.70;;;26.70;;
77004;SDS011;67261;53.132;18.006;2024-03-02T00:18:35;54.40;;;27.20;;
77004;SDS011;67261;53.132;18.006;2024-03-02T00:21:04;55.50;;;29.90;;
77004;SDS011;67261;53.132;18.006;2024-03-02T00:23:36;56.40;;;28.20;;
77004;SDS011;67261;53.132;18.006;2024-03-02T00:26:03;60.60;;;28.40;;
77004;SDS011;67261;53.132;18.006;2024-03-02T00:31:07;55.60;;;27.70;;
77004;SDS011;67261;53.132;18.006;2024-03-02T00:33:36;55.80;;;29.40;;
77004;SDS011;67261;53.132;18.006;2024-03-02T00:36:07;62.90;;;28.80;;
77004;SDS011;67261;53.132;18.006;2024-03-02T00:38:35;54.50;;;27.90;;
77004;SDS011;67261;53.132;18.006;2024-03-02T00:41:21;62.80;;;30.80;;
77004;SDS011;67261;53.132;18.006;2024-03-02T00:44:03;61.90;;;29.30;;
77004;SDS011;67261;53.132;18.006;2024-03-02T00:46:39;62.40;;;30.00;;
77004;SDS011;67261;53.132;18.006;2024-03-02T00:49:18;56.40;;;27.40;;
77004;SDS011;67261;53.132;18.006;2024-03-02T00:51:51;61.10;;;30.30;;
77004;SDS011;67261;53.132;18.006;2024-03-02T00:54:20;62.80;;;29.00;;
77004;SDS011;67261;53.132;18.006;2024-03-02T00:56:50;65.70;;;30.10;;
77004;SDS011;67261;53.132;18.006;2024-03-02T00:59:18;62.00;;;30.30;;
77004;SDS011;67261;53.132;18.006;2024-03-02T01:01:45;57.70;;;27.00;;
77004;SDS011;67261;53.132;18.006;2024-03-02T01:06:41;57.50;;;27.10;;
77004;SDS011;67261;53.132;18.006;2024-03-02T01:09:09;60.20;;;28.60;;
77004;SDS011;67261;53.132;18.006;2024-03-02T01:11:36;61.20;;;28.50;;
77004;SDS011;67261;53.132;18.006;2024-03-02T01:14:03;59.00;;;29.10;;
77004;SDS011;67261;53.132;18.006;2024-03-02T01:16:30;56.00;;;26.90;;
77004;SDS011;67261;53.132;18.006;2024-03-02T01:18:57;60.00;;;26.00;;
77004;SDS011;67261;53.132;18.006;2024-03-02T01:21:24;56.50;;;28.30;;
77004;SDS011;67261;53.132;18.006;2024-03-02T01:23:51;56.70;;;28.50;;
77004;SDS011;67261;53.132;18.006;2024-03-02T01:26:18;65.80;;;30.00;;
77004;SDS011;67261;53.132;18.006;2024-03-02T01:28:45;61.90;;;29.40;;
77004;SDS011;67261;53.132;18.006;2024-03-02T01:31:11;58.00;;;28.30;;
77004;SDS011;67261;53.132;18.006;2024-03-02T01:33:39;63.50;;;30.30;;
77004;SDS011;67261;53.132;18.006;2024-03-02T01:36:06;59.10;;;27.40;;
77004;SDS011;67261;53.132;18.006;2024-03-02T01:38:34;60.80;;;28.50;;
77004;SDS011;67261;53.132;18.006;2024-03-02T01:41:01;57.40;;;28.90;;
77004;SDS011;67261;53.132;18.006;2024-03-02T01:43:29;56.50;;;28.50;;
77004;SDS011;67261;53.132;18.006;2024-03-02T01:45:55;58.60;;;29.50;;
77004;SDS011;67261;53.132;18.006;2024-03-02T01:48:25;55.30;;;28.00;;
77004;SDS011;67261;53.132;18.006;2024-03-02T01:50:52;58.30;;;28.40;;
77004;SDS011;67261;53.132;18.006;2024-03-02T01:53:22;59.50;;;29.60;;
77004;SDS011;67261;53.132;18.006;2024-03-02T01:55:50;53.60;;;25.20;;
77004;SDS011;67261;53.132;18.006;2024-03-02T01:58:17;59.00;;;26.30;;
77004;SDS011;67261;53.132;18.006;2024-03-02T02:00:44;57.50;;;25.80;;
77004;SDS011;67261;53.132;18.006;2024-03-02T02:03:11;59.30;;;28.80;;
77004;SDS011;67261;53.132;18.006;2024-03-02T02:05:38;61.50;;;28.30;;
77004;SDS011;67261;53.132;18.006;2024-03-02T02:08:05;61.80;;;27.60;;
77004;SDS011;67261;53.132;18.006;2024-03-02T02:10:32;57.60;;;26.90;;
77004;SDS011;67261;53.132;18.006;2024-03-02T02:12:59;61.20;;;29.10;;
77004;SDS011;67261;53.132;18.006;2024-03-02T02:15:27;57.00;;;27.90;;
77004;SDS011;67261;53.132;18.006;2024-03-02T02:17:57;57.10;;;27.40;;
77004;SDS011;67261;53.132;18.006;2024-03-02T02:20:25;64.50;;;30.40;;
77004;SDS011;67261;53.132;18.006;2024-03-02T02:22:55;58.20;;;29.30;;
77004;SDS011;67261;53.132;18.006;2024-03-02T02:25:27;61.70;;;27.70;;
77004;SDS011;67261;53.132;18.006;2024-03-02T02:27:55;58.40;;;27.00;;
77004;SDS011;67261;53.132;18.006;2024-03-02T02:30:27;63.20;;;29.80;;
77004;SDS011;67261;53.132;18.006;2024-03-02T02:32:55;54.10;;;26.10;;
77004;SDS011;67261;53.132;18.006;2024-03-02T02:37:52;56.70;;;27.90;;
77004;SDS011;67261;53.132;18.006;2024-03-02T02:40:21;51.60;;;25.80;;
77004;SDS011;67261;53.132;18.006;2024-03-02T02:42:48;52.40;;;26.50;;
77004;SDS011;67261;53.132;18.006;2024-03-02T02:45:14;54.70;;;26.60;;
77004;SDS011;67261;53.132;18.006;2024-03-02T02:47:42;51.40;;;25.00;;
77004;SDS011;67261;53.132;18.006;2024-03-02T02:50:09;52.40;;;25.30;;
77004;SDS011;67261;53.132;18.006;2024-03-02T02:52:38;51.30;;;25.20;;
77004;SDS011;67261;53.132;18.006;2024-03-02T02:55:07;50.60;;;25.40;;
77004;SDS011;67261;53.132;18.006;2024-03-02T02:57:35;51.20;;;26.50;;
77004;SDS011;67261;53.132;18.006;2024-03-02T03:00:05;55.00;;;25.70;;
77004;SDS011;67261;53.132;18.006;2024-03-02T03:02:43;42.70;;;21.40;;
77004;SDS011;67261;53.132;18.006;2024-03-02T03:05:11;46.80;;;23.90;;
77004;SDS011;67261;53.132;18.006;2024-03-02T03:07:39;52.00;;;24.40;;
77004;SDS011;67261;53.132;18.006;2024-03-02T03:10:07;48.80;;;23.80;;
77004;SDS011;67261;53.132;18.006;2024-03-02T03:12:35;48.90;;;24.50;;
77004;SDS011;67261;53.132;18.006;2024-03-02T03:15:04;47.40;;;23.60;;
77004;SDS011;67261;53.132;18.006;2024-03-02T03:17:33;51.40;;;25.70;;
77004;SDS011;67261;53.132;18.006;2024-03-02T03:20:01;49.40;;;24.30;;
77004;SDS011;67261;53.132;18.006;2024-03-02T03:22:30;50.60;;;24.60;;
77004;SDS011;67261;53.132;18.006;2024-03-02T03:24:58;48.30;;;24.40;;
77004;SDS011;67261;53.132;18.006;2024-03-02T03:27:26;53.60;;;26.40;;
77004;SDS011;67261;53.132;18.006;2024-03-02T03:29:53;46.40;;;25.60;;
77004;SDS011;67261;53.132;18.006;2024-03-02T03:32:21;49.30;;;25.50;;
77004;SDS011;67261;53.132;18.006;2024-03-02T03:34:48;46.20;;;23.20;;
77004;SDS011;67261;53.132;18.006;2024-03-02T03:37:15;44.00;;;22.90;;
77004;SDS011;67261;53.132;18.006;2024-03-02T03:39:42;43.70;;;22.10;;
77004;SDS011;67261;53.132;18.006;2024-03-02T03:42:09;43.30;;;21.70;;
77004;SDS011;67261;53.132;18.006;2024-03-02T03:44:36;38.30;;;20.10;;
77004;SDS011;67261;53.132;18.006;2024-03-02T03:47:02;43.90;;;21.00;;
77004;SDS011;67261;53.132;18.006;2024-03-02T03:49:29;42.50;;;22.30;;
77004;SDS011;67261;53.132;18.006;2024-03-02T03:51:56;43.40;;;21.00;;
77004;SDS011;67261;53.132;18.006;2024-03-02T03:54:23;38.50;;;20.00;;
77004;SDS011;67261;53.132;18.006;2024-03-02T03:56:50;39.10;;;21.40;;
77004;SDS011;67261;53.132;18.006;2024-03-02T03:59:17;39.80;;;21.60;;
77004;SDS011;67261;53.132;18.006;2024-03-02T04:01:44;39.20;;;21.40;;
77004;SDS011;67261;53.132;18.006;2024-03-02T04:04:10;34.90;;;17.90;;
77004;SDS011;67261;53.132;18.006;2024-03-02T04:06:37;38.50;;;19.50;;
77004;SDS011;67261;53.132;18.006;2024-03-02T04:09:04;34.40;;;18.70;;
77004;SDS011;67261;53.132;18.006;2024-03-02T04:11:31;36.70;;;19.10;;
77004;SDS011;67261;53.132;18.006;2024-03-02T04:13:58;34.10;;;19.40;;
77004;SDS011;67261;53.132;18.006;2024-03-02T04:16:25;37.30;;;19.00;;
77004;SDS011;67261;53.132;18.006;2024-03-02T04:18:52;32.50;;;18.00;;
77004;SDS011;67261;53.132;18.006;2024-03-02T04:21:19;35.20;;;17.90;;
77004;SDS011;67261;53.132;18.006;2024-03-02T04:23:46;39.50;;;20.10;;
77004;SDS011;67261;53.132;18.006;2024-03-02T04:26:13;34.30;;;19.20;;
77004;SDS011;67261;53.132;18.006;2024-03-02T04:28:41;36.90;;;19.30;;
77004;SDS011;67261;53.132;18.006;2024-03-02T04:31:08;33.50;;;18.20;;
77004;SDS011;67261;53.132;18.006;2024-03-02T04:33:35;34.00;;;19.30;;
77004;SDS011;67261;53.132;18.006;2024-03-02T04:36:02;34.00;;;19.00;;
77004;SDS011;67261;53.132;18.006;2024-03-02T04:38:29;34.70;;;19.70;;
77004;SDS011;67261;53.132;18.006;2024-03-02T04:40:57;31.00;;;19.50;;
77004;SDS011;67261;53.132;18.006;2024-03-02T04:43:24;33.60;;;18.90;;
77004;SDS011;67261;53.132;18.006;2024-03-02T04:45:51;33.90;;;18.50;;
77004;SDS011;67261;53.132;18.006;2024-03-02T04:48:18;37.50;;;19.70;;
77004;SDS011;67261;53.132;18.006;2024-03-02T04:50:45;32.70;;;18.90;;
77004;SDS011;67261;53.132;18.006;2024-03-02T04:53:12;32.00;;;18.40;;
77004;SDS011;67261;53.132;18.006;2024-03-02T04:55:40;33.50;;;18.90;;
77004;SDS011;67261;53.132;18.006;2024-03-02T04:58:07;33.80;;;18.70;;
77004;SDS011;67261;53.132;18.006;2024-03-02T05:00:34;32.10;;;15.90;;
77004;SDS011;67261;53.132;18.006;2024-03-02T05:03:03;31.60;;;17.90;;
77004;SDS011;67261;53.132;18.006;2024-03-02T05:05:31;29.80;;;16.40;;
77004;SDS011;67261;53.132;18.006;2024-03-02T05:07:58;31.60;;;16.90;;
77004;SDS011;67261;53.132;18.006;2024-03-02T05:10:24;31.70;;;17.20;;
77004;SDS011;67261;53.132;18.006;2024-03-02T05:12:54;33.50;;;18.30;;
77004;SDS011;67261;53.132;18.006;2024-03-02T05:15:25;32.50;;;18.90;;
77004;SDS011;67261;53.132;18.006;2024-03-02T05:17:52;32.20;;;17.60;;
77004;SDS011;67261;53.132;18.006;2024-03-02T05:20:19;29.50;;;17.00;;
77004;SDS011;67261;53.132;18.006;2024-03-02T05:22:46;33.60;;;18.70;;
77004;SDS011;67261;53.132;18.006;2024-03-02T05:25:15;34.40;;;19.10;;
77004;SDS011;67261;53.132;18.006;2024-03-02T05:27:42;31.60;;;18.10;;
77004;SDS011;67261;53.132;18.006;2024-03-02T05:30:09;33.40;;;19.80;;
77004;SDS011;67261;53.132;18.006;2024-03-02T05:32:36;34.60;;;19.40;;
77004;SDS011;67261;53.132;18.006;2024-03-02T05:35:04;35.80;;;18.30;;
77004;SDS011;67261;53.132;18.006;2024-03-02T05:39:58;34.20;;;18.00;;
77004;SDS011;67261;53.132;18.006;2024-03-02T05:42:25;35.10;;;20.20;;
77004;SDS011;67261;53.132;18.006;2024-03-02T05:44:53;35.20;;;20.80;;
77004;SDS011;67261;53.132;18.006;2024-03-02T05:49:48;34.10;;;18.20;;
77004;SDS011;67261;53.132;18.006;2024-03-02T05:52:15;34.10;;;19.00;;
77004;SDS011;67261;53.132;18.006;2024-03-02T05:54:42;36.80;;;20.30;;
77004;SDS011;67261;53.132;18.006;2024-03-02T05:57:09;34.90;;;19.00;;
77004;SDS011;67261;53.132;18.006;2024-03-02T05:59:54;33.00;;;20.00;;
77004;SDS011;67261;53.132;18.006;2024-03-02T06:02:21;35.10;;;18.90;;
77004;SDS011;67261;53.132;18.006;2024-03-02T06:04:48;33.90;;;19.00;;
77004;SDS011;67261;53.132;18.006;2024-03-02T06:07:15;34.40;;;19.10;;
77004;SDS011;67261;53.132;18.006;2024-03-02T06:09:41;32.10;;;18.60;;
77004;SDS011;67261;53.132;18.006;2024-03-02T06:12:09;32.70;;;19.30;;
77004;SDS011;67261;53.132;18.006;2024-03-02T06:14:36;33.50;;;19.80;;
77004;SDS011;67261;53.132;18.006;2024-03-02T06:17:02;33.90;;;19.90;;
77004;SDS011;67261;53.132;18.006;2024-03-02T06:19:29;37.70;;;22.00;;
77004;SDS011;67261;53.132;18.006;2024-03-02T06:21:56;33.20;;;20.10;;
77004;SDS011;67261;53.132;18.006;2024-03-02T06:24:23;34.20;;;19.30;;
77004;SDS011;67261;53.132;18.006;2024-03-02T06:26:52;33.80;;;19.70;;
77004;SDS011;67261;53.132;18.006;2024-03-02T06:29:19;38.80;;;22.20;;
77004;SDS011;67261;53.132;18.006;2024-03-02T06:31:46;36.10;;;19.20;;
77004;SDS011;67261;53.132;18.006;2024-03-02T06:34:14;34.00;;;19.90;;
77004;SDS011;67261;53.132;18.006;2024-03-02T06:36:40;36.20;;;20.30;;
77004;SDS011;67261;53.132;18.006;2024-03-02T06:39:09;32.10;;;19.40;;
77004;SDS011;67261;53.132;18.006;2024-03-02T06:41:36;35.50;;;20.00;;
77004;SDS011;67261;53.132;18.006;2024-03-02T06:44:04;35.30;;;20.10;;
77004;SDS011;67261;53.132;18.006;2024-03-02T06:46:32;31.80;;;18.10;;
77004;SDS011;67261;53.132;18.006;2024-03-02T06:48:59;41.70;;;21.40;;
77004;SDS011;67261;53.132;18.006;2024-03-02T06:51:26;32.90;;;18.90;;
77004;SDS011;67261;53.132;18.006;2024-03-02T06:53:53;32.20;;;19.00;;
77004;SDS011;67261;53.132;18.006;2024-03-02T06:56:20;34.60;;;19.90;;
77004;SDS011;67261;53.132;18.006;2024-03-02T06:58:47;36.20;;;19.50;;
77004;SDS011;67261;53.132;18.006;2024-03-02T07:01:14;34.20;;;20.10;;
77004;SDS011;67261;53.132;18.006;2024-03-02T07:03:41;32.30;;;19.00;;
77004;SDS011;67261;53.132;18.006;2024-03-02T07:06:10;32.10;;;19.10;;
77004;SDS011;67261;53.132;18.006;2024-03-02T07:08:38;31.60;;;18.50;;
77004;SDS011;67261;53.132;18.006;2024-03-02T07:11:09;35.90;;;20.10;;
77004;SDS011;67261;53.132;18.006;2024-03-02T07:13:36;32.60;;;18.50;;
77004;SDS011;67261;53.132;18.006;2024-03-02T07:16:04;34.00;;;18.00;;
77004;SDS011;67261;53.132;18.006;2024-03-02T07:18:37;31.20;;;17.40;;
77004;SDS011;67261;53.132;18.006;2024-03-02T07:21:07;32.30;;;19.30;;
77004;SDS011;67261;53.132;18.006;2024-03-02T07:23:34;33.10;;;18.10;;
77004;SDS011;67261;53.132;18.006;2024-03-02T07:26:04;29.50;;;17.30;;
77004;SDS011;67261;53.132;18.006;2024-03-02T07:28:31;30.90;;;16.80;;
77004;SDS011;67261;53.132;18.006;2024-03-02T07:33:26;32.10;;;17.80;;
77004;SDS011;67261;53.132;18.006;2024-03-02T07:35:54;31.80;;;19.70;;
77004;SDS011;67261;53.132;18.006;2024-03-02T07:38:22;34.40;;;19.30;;
77004;SDS011;67261;53.132;18.006;2024-03-02T07:40:53;32.30;;;19.90;;
77004;SDS011;67261;53.132;18.006;2024-03-02T07:43:20;32.10;;;18.70;;
77004;SDS011;67261;53.132;18.006;2024-03-02T07:45:48;31.50;;;18.90;;
77004;SDS011;67261;53.132;18.006;2024-03-02T07:48:18;31.20;;;17.90;;
77004;SDS011;67261;53.132;18.006;2024-03-02T07:50:45;32.70;;;19.90;;
77004;SDS011;67261;53.132;18.006;2024-03-02T07:53:12;30.20;;;18.60;;
77004;SDS011;67261;53.132;18.006;2024-03-02T07:55:39;30.90;;;18.60;;
77004;SDS011;67261;53.132;18.006;2024-03-02T07:58:07;26.60;;;16.70;;
77004;SDS011;67261;53.132;18.006;2024-03-02T08:00:33;28.00;;;17.70;;
77004;SDS011;67261;53.132;18.006;2024-03-02T08:03:01;28.60;;;17.40;;
77004;SDS011;67261;53.132;18.006;2024-03-02T08:05:32;30.60;;;18.50;;
77004;SDS011;67261;53.132;18.006;2024-03-02T08:07:58;29.40;;;17.40;;
77004;SDS011;67261;53.132;18.006;2024-03-02T08:10:25;29.40;;;17.40;;
77004;SDS011;67261;53.132;18.006;2024-03-02T08:12:52;29.90;;;17.20;;
77004;SDS011;67261;53.132;18.006;2024-03-02T08:15:19;30.80;;;17.40;;
77004;SDS011;67261;53.132;18.006;2024-03-02T08:17:46;26.70;;;17.30;;
77004;SDS011;67261;53.132;18.006;2024-03-02T08:20:16;29.00;;;18.40;;
77004;SDS011;67261;53.132;18.006;2024-03-02T08:22:45;29.30;;;19.00;;
77004;SDS011;67261;53.132;18.006;2024-03-02T08:25:13;27.70;;;17.10;;
77004;SDS011;67261;53.132;18.006;2024-03-02T08:27:42;29.00;;;17.60;;
77004;SDS011;67261;53.132;18.006;2024-03-02T08:30:11;28.80;;;17.80;;
77004;SDS011;67261;53.132;18.006;2024-03-02T08:32:39;28.60;;;18.80;;
77004;SDS011;67261;53.132;18.006;2024-03-02T08:35:07;29.00;;;17.40;;
77004;SDS011;67261;53.132;18.006;2024-03-02T08:37:34;24.80;;;16.30;;
77004;SDS011;67261;53.132;18.006;2024-03-02T08:40:01;25.90;;;16.00;;
77004;SDS011;67261;53.132;18.006;2024-03-02T08:42:30;31.00;;;17.50;;
77004;SDS011;67261;53.132;18.006;2024-03-02T08:44:57;28.00;;;15.40;;
77004;SDS011;67261;53.132;18.006;2024-03-02T08:47:24;28.60;;;17.00;;
77004;SDS011;67261;53.132;18.006;2024-03-02T08:49:51;27.40;;;18.00;;
77004;SDS011;67261;53.132;18.006;2024-03-02T08:52:18;28.90;;;17.40;;
77004;SDS011;67261;53.132;18.006;2024-03-02T08:54:45;25.40;;;15.60;;
77004;SDS011;67261;53.132;18.006;2024-03-02T08:57:12;27.80;;;17.40;;
77004;SDS011;67261;53.132;18.006;2024-03-02T08:59:39;28.10;;;17.30;;
77004;SDS011;67261;53.132;18.006;2024-03-02T09:02:06;29.30;;;17.30;;
77004;SDS011;67261;53.132;18.006;2024-03-02T09:04:33;29.30;;;18.10;;
77004;SDS011;67261;53.132;18.006;2024-03-02T09:07:00;31.40;;;17.60;;
77004;SDS011;67261;53.132;18.006;2024-03-02T09:09:27;26.90;;;16.80;;
77004;SDS011;67261;53.132;18.006;2024-03-02T09:11:54;25.80;;;16.10;;
77004;SDS011;67261;53.132;18.006;2024-03-02T09:14:23;25.40;;;15.00;;
77004;SDS011;67261;53.132;18.006;2024-03-02T09:16:50;27.80;;;17.60;;
77004;SDS011;67261;53.132;18.006;2024-03-02T09:19:17;28.70;;;17.10;;
77004;SDS011;67261;53.132;18.006;2024-03-02T09:21:46;28.90;;;17.80;;
77004;SDS011;67261;53.132;18.006;2024-03-02T09:24:13;26.30;;;17.00;;
77004;SDS011;67261;53.132;18.006;2024-03-02T09:26:40;28.20;;;16.70;;
77004;SDS011;67261;53.132;18.006;2024-03-02T09:29:07;25.00;;;15.20;;
77004;SDS011;67261;53.132;18.006;2024-03-02T09:31:38;23.90;;;14.30;;
77004;SDS011;67261;53.132;18.006;2024-03-02T09:34:06;27.60;;;14.80;;
77004;SDS011;67261;53.132;18.006;2024-03-02T09:36:34;26.40;;;15.40;;
77004;SDS011;67261;53.132;18.006;2024-03-02T09:39:01;24.60;;;15.20;;
77004;SDS011;67261;53.132;18.006;2024-03-02T09:41:27;24.30;;;15.50;;
77004;SDS011;67261;53.132;18.006;2024-03-02T09:43:55;20.00;;;12.60;;
77004;SDS011;67261;53.132;18.006;2024-03-02T09:48:49;25.80;;;15.80;;
77004;SDS011;67261;53.132;18.006;2024-03-02T09:51:16;24.70;;;15.90;;
77004;SDS011;67261;53.132;18.006;2024-03-02T09:53:47;26.10;;;15.40;;
77004;SDS011;67261;53.132;18.006;2024-03-02T09:56:15;22.20;;;14.80;;
77004;SDS011;67261;53.132;18.006;2024-03-02T09:58:50;27.30;;;16.30;;
77004;SDS011;67261;53.132;18.006;2024-03-02T10:01:18;27.60;;;17.20;;
77004;SDS011;67261;53.132;18.006;2024-03-02T10:03:45;24.30;;;17.30;;
77004;SDS011;67261;53.132;18.006;2024-03-02T10:06:23;24.90;;;16.90;;
77004;SDS011;67261;53.132;18.006;2024-03-02T10:08:54;27.30;;;15.20;;
77004;SDS011;67261;53.132;18.006;2024-03-02T10:11:26;24.50;;;14.60;;
77004;SDS011;67261;53.132;18.006;2024-03-02T10:14:06;24.70;;;17.00;;
77004;SDS011;67261;53.132;18.006;2024-03-02T10:16:37;26.00;;;16.30;;
77004;SDS011;67261;53.132;18.006;2024-03-02T10:19:22;26.60;;;15.60;;
77004;SDS011;67261;53.132;18.006;2024-03-02T10:21:51;26.10;;;16.00;;
77004;SDS011;67261;53.132;18.006;2024-03-02T10:24:19;26.70;;;16.40;;
77004;SDS011;67261;53.132;18.006;2024-03-02T10:26:51;25.70;;;15.70;;
77004;SDS011;67261;53.132;18.006;2024-03-02T10:29:18;25.30;;;16.60;;
77004;SDS011;67261;53.132;18.006;2024-03-02T10:31:45;26.00;;;15.00;;
77004;SDS011;67261;53.132;18.006;2024-03-02T10:34:13;25.50;;;15.60;;
77004;SDS011;67261;53.132;18.006;2024-03-02T10:36:41;23.40;;;14.60;;
77004;SDS011;67261;53.132;18.006;2024-03-02T10:39:09;27.30;;;15.00;;
77004;SDS011;67261;53.132;18.006;2024-03-02T10:41:36;24.00;;;15.70;;
77004;SDS011;67261;53.132;18.006;2024-03-02T10:44:06;26.00;;;16.90;;
77004;SDS011;67261;53.132;18.006;2024-03-02T10:46:34;26.30;;;16.90;;
77004;SDS011;67261;53.132;18.006;2024-03-02T10:49:04;23.50;;;15.60;;
77004;SDS011;67261;53.132;18.006;2024-03-02T10:51:33;23.30;;;15.10;;
77004;SDS011;67261;53.132;18.006;2024-03-02T10:54:03;23.00;;;15.60;;
77004;SDS011;67261;53.132;18.006;2024-03-02T10:56:31;24.60;;;16.30;;
77004;SDS011;67261;53.132;18.006;2024-03-02T11:01:50;30.00;;;18.10;;
77004;SDS011;67261;53.132;18.006;2024-03-02T11:04:18;28.10;;;18.20;;
77004;SDS011;67261;53.132;18.006;2024-03-02T11:06:48;27.20;;;17.50;;
77004;SDS011;67261;53.132;18.006;2024-03-02T11:09:20;26.70;;;16.20;;
77004;SDS011;67261;53.132;18.006;2024-03-02T11:12:35;27.00;;;16.40;;
77004;SDS011;67261;53.132;18.006;2024-03-02T11:14:55;30.00;;;17.90;;
77004;SDS011;67261;53.132;18.006;2024-03-02T11:17:22;28.90;;;17.40;;
77004;SDS011;67261;53.132;18.006;2024-03-02T11:19:51;28.70;;;17.70;;
77004;SDS011;67261;53.132;18.006;2024-03-02T11:22:19;28.00;;;17.10;;
77004;SDS011;67261;53.132;18.006;2024-03-02T11:24:47;27.60;;;17.50;;
77004;SDS011;67261;53.132;18.006;2024-03-02T11:27:20;28.60;;;18.10;;
77004;SDS011;67261;53.132;18.006;2024-03-02T11:33:00;30.30;;;18.50;;
77004;SDS011;67261;53.132;18.006;2024-03-02T11:35:27;27.10;;;17.90;;
77004;SDS011;67261;53.132;18.006;2024-03-02T11:37:59;32.30;;;18.10;;
77004;SDS011;67261;53.132;18.006;2024-03-02T11:40:28;28.60;;;17.60;;
77004;SDS011;67261;53.132;18.006;2024-03-02T11:42:59;28.60;;;17.90;;
77004;SDS011;67261;53.132;18.006;2024-03-02T11:45:27;27.50;;;18.30;;
77004;SDS011;67261;53.132;18.006;2024-03-02T11:47:55;28.70;;;18.10;;
77004;SDS011;67261;53.132;18.006;2024-03-02T11:53:05;29.00;;;17.50;;
77004;SDS011;67261;53.132;18.006;2024-03-02T11:55:35;22.30;;;14.10;;
77004;SDS011;67261;53.132;18.006;2024-03-02T11:58:03;29.60;;;18.40;;
77004;SDS011;67261;53.132;18.006;2024-03-02T12:00:30;29.00;;;18.50;;
77004;SDS011;67261;53.132;18.006;2024-03-02T12:05:28;31.70;;;19.80;;
77004;SDS011;67261;53.132;18.006;2024-03-02T12:07:58;33.20;;;19.50;;
77004;SDS011;67261;53.132;18.006;2024-03-02T12:10:26;26.60;;;16.00;;
77004;SDS011;67261;53.132;18.006;2024-03-02T12:13:00;29.60;;;19.10;;
77004;SDS011;67261;53.132;18.006;2024-03-02T12:15:29;29.90;;;19.90;;
77004;SDS011;67261;53.132;18.006;2024-03-02T12:17:58;31.80;;;18.80;;
77004;SDS011;67261;53.132;18.006;2024-03-02T12:20:27;29.90;;;20.00;;
77004;SDS011;67261;53.132;18.006;2024-03-02T12:23:02;29.40;;;16.80;;
77004;SDS011;67261;53.132;18.006;2024-03-02T12:25:31;31.20;;;18.90;;
77004;SDS011;67261;53.132;18.006;2024-03-02T12:28:02;30.40;;;18.50;;
77004;SDS011;67261;53.132;18.006;2024-03-02T12:30:30;24.60;;;15.10;;
77004;SDS011;67261;53.132;18.006;2024-03-02T12:32:58;30.80;;;18.90;;
77004;SDS011;67261;53.132;18.006;2024-03-02T12:35:26;33.70;;;19.60;;
77004;SDS011;67261;53.132;18.006;2024-03-02T12:37:53;28.40;;;17.60;;
77004;SDS011;67261;53.132;18.006;2024-03-02T12:40:23;32.10;;;19.60;;
77004;SDS011;67261;53.132;18.006;2024-03-02T12:42:50;29.20;;;18.50;;
77004;SDS011;67261;53.132;18.006;2024-03-02T12:45:17;33.20;;;18.70;;
77004;SDS011;67261;53.132;18.006;2024-03-02T12:47:50;30.10;;;19.60;;
77004;SDS011;67261;53.132;18.006;2024-03-02T12:50:20;30.70;;;18.90;;
77004;SDS011;67261;53.132;18.006;2024-03-02T12:52:54;29.40;;;18.80;;
77004;SDS011;67261;53.132;18.006;2024-03-02T12:55:22;29.50;;;18.00;;
77004;SDS011;67261;53.132;18.006;2024-03-02T12:57:50;32.40;;;19.80;;
77004;SDS011;67261;53.132;18.006;2024-03-02T13:00:18;28.00;;;18.20;;
77004;SDS011;67261;53.132;18.006;2024-03-02T13:02:47;30.30;;;18.80;;
77004;SDS011;67261;53.132;18.006;2024-03-02T13:05:18;30.10;;;19.10;;
77004;SDS011;67261;53.132;18.006;2024-03-02T13:07:46;29.60;;;18.90;;
77004;SDS011;67261;53.132;18.006;2024-03-02T13:10:14;30.00;;;18.90;;
77004;SDS011;67261;53.132;18.006;2024-03-02T13:12:41;26.90;;;16.50;;
77004;SDS011;67261;53.132;18.006;2024-03-02T13:15:08;28.60;;;19.10;;
77004;SDS011;67261;53.132;18.006;2024-03-02T13:17:37;34.10;;;19.60;;
77004;SDS011;67261;53.132;18.006;2024-03-02T13:20:06;29.50;;;17.50;;
77004;SDS011;67261;53.132;18.006;2024-03-02T13:22:37;30.80;;;17.80;;
77004;SDS011;67261;53.132;18.006;2024-03-02T13:25:04;28.90;;;17.60;;
77004;SDS011;67261;53.132;18.006;2024-03-02T13:27:32;29.60;;;19.70;;
77004;SDS011;67261;53.132;18.006;2024-03-02T13:29:59;31.80;;;18.50;;
77004;SDS011;67261;53.132;18.006;2024-03-02T13:32:26;30.20;;;18.30;;
77004;SDS011;67261;53.132;18.006;2024-03-02T13:34:53;47.50;;;27.90;;
77004;SDS011;67261;53.132;18.006;2024-03-02T13:37:20;29.10;;;18.50;;
77004;SDS011;67261;53.132;18.006;2024-03-02T13:39:48;32.50;;;19.60;;
77004;SDS011;67261;53.132;18.006;2024-03-02T13:42:15;33.20;;;19.70;;
77004;SDS011;67261;53.132;18.006;2024-03-02T13:44:43;31.80;;;19.20;;
77004;SDS011;67261;53.132;18.006;2024-03-02T13:47:13;34.50;;;20.30;;
77004;SDS011;67261;53.132;18.006;2024-03-02T13:49:41;30.80;;;19.70;;
77004;SDS011;67261;53.132;18.006;2024-03-02T13:52:13;35.60;;;21.40;;
77004;SDS011;67261;53.132;18.006;2024-03-02T13:54:40;28.70;;;18.40;;
77004;SDS011;67261;53.132;18.006;2024-03-02T13:57:08;32.70;;;19.40;;
77004;SDS011;67261;53.132;18.006;2024-03-02T13:59:36;32.70;;;19.80;;
77004;SDS011;67261;53.132;18.006;2024-03-02T14:02:07;36.30;;;20.50;;
77004;SDS011;67261;53.132;18.006;2024-03-02T14:04:35;28.50;;;16.40;;
77004;SDS011;67261;53.132;18.006;2024-03-02T14:07:03;34.40;;;20.80;;
77004;SDS011;67261;53.132;18.006;2024-03-02T14:09:30;34.40;;;19.80;;
77004;SDS011;67261;53.132;18.006;2024-03-02T14:11:59;34.40;;;20.40;;
77004;SDS011;67261;53.132;18.006;2024-03-02T14:14:30;33.90;;;20.70;;
77004;SDS011;67261;53.132;18.006;2024-03-02T14:16:58;34.80;;;21.00;;
77004;SDS011;67261;53.132;18.006;2024-03-02T14:19:32;35.40;;;20.60;;
77004;SDS011;67261;53.132;18.006;2024-03-02T14:21:59;40.40;;;22.80;;
77004;SDS011;67261;53.132;18.006;2024-03-02T14:24:26;42.80;;;24.70;;
77004;SDS011;67261;53.132;18.006;2024-03-02T14:26:55;42.80;;;25.80;;
77004;SDS011;67261;53.132;18.006;2024-03-02T14:29:24;46.90;;;26.30;;
77004;SDS011;67261;53.132;18.006;2024-03-02T14:31:51;73.00;;;39.60;;
77004;SDS011;67261;53.132;18.006;2024-03-02T14:34:18;63.00;;;33.20;;
77004;SDS011;67261;53.132;18.006;2024-03-02T14:36:45;43.80;;;25.90;;
77004;SDS011;67261;53.132;18.006;2024-03-02T14:39:11;38.70;;;23.40;;
77004;SDS011;67261;53.132;18.006;2024-03-02T14:44:06;36.10;;;19.50;;
77004;SDS011;67261;53.132;18.006;2024-03-02T14:46:33;40.20;;;23.30;;